AVA151 SAME-SCEL
Flight info
| Callsign | AVA151 |
|---|---|
| Flight time | 0h 40m |
| Altitude | 24000 |
| Route | UMKAL1G UMKAL UMKAL7B |
| Aircraft | A320/M-SDE3FGHIRWY/LB1 |
Departure
| Time | 2026-05-05 15:17 |
|---|---|
| Airport | Governor Francisco Gabrielli International Airport (SAME) |
Arrival
| Time | 2026-05-05 15:57 |
|---|---|
| Airport | Comodoro Arturo Merino Benítez International Airport (SCEL) |
| Time | Latitude | Longitude | Altitude | Speed | Heading |
|---|---|---|---|---|---|
| 2026-05-05 14:57 | -32.82802 | -68.79780 | 2312 ft | 0 kts | 269° |
| 2026-05-05 15:09 | -32.82802 | -68.79771 | 2311 ft | 3 kts | 268° |
| 2026-05-05 15:09 | -32.82801 | -68.79747 | 2311 ft | 3 kts | 268° |
| 2026-05-05 15:09 | -32.82802 | -68.79724 | 2311 ft | 3 kts | 289° |
| 2026-05-05 15:10 | -32.82806 | -68.79711 | 2317 ft | 2 kts | 354° |
| 2026-05-05 15:10 | -32.82819 | -68.79711 | 2313 ft | 3 kts | 0° |
| 2026-05-05 15:10 | -32.82839 | -68.79711 | 2314 ft | 3 kts | 2° |
| 2026-05-05 15:10 | -32.82858 | -68.79712 | 2315 ft | 2 kts | 1° |
| 2026-05-05 15:11 | -32.82861 | -68.79712 | 2314 ft | 0 kts | 1° |
| 2026-05-05 15:12 | -32.82831 | -68.79711 | 2313 ft | 10 kts | 1° |
| 2026-05-05 15:13 | -32.82742 | -68.79709 | 2311 ft | 11 kts | 1° |
| 2026-05-05 15:13 | -32.82683 | -68.79702 | 2316 ft | 8 kts | 33° |
| 2026-05-05 15:13 | -32.82674 | -68.79614 | 2310 ft | 13 kts | 89° |
| 2026-05-05 15:13 | -32.82656 | -68.79527 | 2314 ft | 9 kts | 48° |
| 2026-05-05 15:14 | -32.82573 | -68.79504 | 2310 ft | 16 kts | 360° |
| 2026-05-05 15:14 | -32.82460 | -68.79502 | 2315 ft | 16 kts | 1° |
| 2026-05-05 15:14 | -32.82354 | -68.79500 | 2315 ft | 15 kts | 1° |
| 2026-05-05 15:14 | -32.82257 | -68.79498 | 2309 ft | 13 kts | 359° |
| 2026-05-05 15:15 | -32.82167 | -68.79498 | 2306 ft | 12 kts | 1° |
| 2026-05-05 15:15 | -32.82084 | -68.79497 | 2314 ft | 12 kts | 0° |
| 2026-05-05 15:15 | -32.82005 | -68.79496 | 2309 ft | 11 kts | 0° |
| 2026-05-05 15:15 | -32.81941 | -68.79470 | 2306 ft | 9 kts | 52° |
| 2026-05-05 15:16 | -32.81933 | -68.79398 | 2310 ft | 9 kts | 89° |
| 2026-05-05 15:16 | -32.81945 | -68.79316 | 2309 ft | 11 kts | 120° |
| 2026-05-05 15:16 | -32.82011 | -68.79272 | 2309 ft | 12 kts | 178° |
| 2026-05-05 15:16 | -32.82158 | -68.79273 | 2313 ft | 49 kts | 180° |
| 2026-05-05 15:17 | -32.82747 | -68.79278 | 2316 ft | 116 kts | 181° |
| 2026-05-05 15:17 | -32.83733 | -68.79294 | 2356 ft | 163 kts | 182° |
| 2026-05-05 15:17 | -32.84855 | -68.79345 | 3051 ft | 161 kts | 182° |
| 2026-05-05 15:17 | -32.85976 | -68.79386 | 3733 ft | 162 kts | 181° |
| 2026-05-05 15:18 | -32.87193 | -68.79427 | 3929 ft | 187 kts | 180° |
| 2026-05-05 15:18 | -32.88573 | -68.79444 | 4228 ft | 211 kts | 178° |
| 2026-05-05 15:18 | -32.90129 | -68.79431 | 4650 ft | 236 kts | 175° |
| 2026-05-05 15:18 | -32.91724 | -68.78768 | 5082 ft | 258 kts | 140° |
| 2026-05-05 15:19 | -32.92744 | -68.76982 | 5725 ft | 271 kts | 107° |
| 2026-05-05 15:19 | -32.93091 | -68.74741 | 6498 ft | 280 kts | 94° |
| 2026-05-05 15:19 | -32.93212 | -68.72397 | 7246 ft | 288 kts | 91° |
| 2026-05-05 15:19 | -32.93333 | -68.70021 | 8017 ft | 295 kts | 93° |
| 2026-05-05 15:20 | -32.93538 | -68.67567 | 8794 ft | 301 kts | 96° |
| 2026-05-05 15:20 | -32.93842 | -68.65081 | 9576 ft | 307 kts | 98° |
| 2026-05-05 15:20 | -32.94230 | -68.62545 | 10193 ft | 318 kts | 100° |
| 2026-05-05 15:20 | -32.94690 | -68.59859 | 10437 ft | 342 kts | 101° |
| 2026-05-05 15:21 | -32.95201 | -68.57041 | 10965 ft | 353 kts | 102° |
| 2026-05-05 15:21 | -32.95734 | -68.54165 | 11648 ft | 358 kts | 102° |
| 2026-05-05 15:21 | -32.96274 | -68.51248 | 12299 ft | 366 kts | 102° |
| 2026-05-05 15:21 | -32.96500 | -68.48210 | 12851 ft | 373 kts | 82° |
| 2026-05-05 15:22 | -32.95710 | -68.45286 | 13477 ft | 372 kts | 55° |
| 2026-05-05 15:22 | -32.93998 | -68.43039 | 14086 ft | 365 kts | 30° |
| 2026-05-05 15:22 | -32.91727 | -68.41823 | 14690 ft | 355 kts | 6° |
| 2026-05-05 15:22 | -32.89307 | -68.41752 | 15327 ft | 345 kts | 343° |
| 2026-05-05 15:23 | -32.87130 | -68.42729 | 15979 ft | 336 kts | 323° |
| 2026-05-05 15:23 | -32.85425 | -68.44569 | 16662 ft | 330 kts | 303° |
| 2026-05-05 15:23 | -32.84262 | -68.46919 | 17343 ft | 331 kts | 296° |
| 2026-05-05 15:23 | -32.83318 | -68.49413 | 18038 ft | 331 kts | 288° |
| 2026-05-05 15:24 | -32.82786 | -68.52090 | 18562 ft | 337 kts | 278° |
| 2026-05-05 15:24 | -32.82696 | -68.54896 | 19009 ft | 344 kts | 270° |
| 2026-05-05 15:24 | -32.82780 | -68.57760 | 19521 ft | 349 kts | 270° |
| 2026-05-05 15:24 | -32.82857 | -68.60661 | 20079 ft | 352 kts | 270° |
| 2026-05-05 15:25 | -32.82932 | -68.63583 | 20619 ft | 355 kts | 270° |
| 2026-05-05 15:25 | -32.83006 | -68.66531 | 21152 ft | 358 kts | 270° |
| 2026-05-05 15:25 | -32.83078 | -68.69506 | 21676 ft | 361 kts | 270° |
| 2026-05-05 15:25 | -32.83144 | -68.72507 | 22197 ft | 365 kts | 270° |
| 2026-05-05 15:26 | -32.83208 | -68.75535 | 22709 ft | 368 kts | 270° |
| 2026-05-05 15:26 | -32.83275 | -68.78596 | 23208 ft | 371 kts | 270° |
| 2026-05-05 15:26 | -32.83353 | -68.81676 | 23673 ft | 374 kts | 269° |
| 2026-05-05 15:26 | -32.83456 | -68.84778 | 23892 ft | 376 kts | 269° |
| 2026-05-05 15:27 | -32.83574 | -68.87862 | 23944 ft | 370 kts | 269° |
| 2026-05-05 15:27 | -32.83694 | -68.90918 | 23948 ft | 368 kts | 269° |
| 2026-05-05 15:27 | -32.83811 | -68.93924 | 23950 ft | 368 kts | 269° |
| 2026-05-05 15:27 | -32.83927 | -68.96962 | 23948 ft | 368 kts | 269° |
| 2026-05-05 15:28 | -32.84039 | -69.00000 | 23949 ft | 368 kts | 269° |
| 2026-05-05 15:28 | -32.84148 | -69.03035 | 23950 ft | 367 kts | 269° |
| 2026-05-05 15:28 | -32.84253 | -69.06074 | 23951 ft | 367 kts | 269° |
| 2026-05-05 15:28 | -32.84358 | -69.09102 | 23950 ft | 367 kts | 269° |
| 2026-05-05 15:29 | -32.84463 | -69.12136 | 23950 ft | 367 kts | 269° |
| 2026-05-05 15:29 | -32.84566 | -69.15175 | 23962 ft | 367 kts | 269° |
| 2026-05-05 15:29 | -32.84671 | -69.18208 | 23965 ft | 367 kts | 269° |
| 2026-05-05 15:29 | -32.84799 | -69.21203 | 23965 ft | 368 kts | 268° |
| 2026-05-05 15:30 | -32.84949 | -69.24234 | 23954 ft | 367 kts | 268° |
| 2026-05-05 15:30 | -32.85105 | -69.27264 | 23982 ft | 368 kts | 268° |
| 2026-05-05 15:30 | -32.85259 | -69.30299 | 23976 ft | 368 kts | 268° |
| 2026-05-05 15:30 | -32.85408 | -69.33340 | 23979 ft | 369 kts | 268° |
| 2026-05-05 15:31 | -32.85551 | -69.36384 | 23967 ft | 367 kts | 269° |
| 2026-05-05 15:31 | -32.85691 | -69.39416 | 24021 ft | 368 kts | 269° |
| 2026-05-05 15:31 | -32.85829 | -69.42454 | 24025 ft | 368 kts | 269° |
| 2026-05-05 15:31 | -32.85968 | -69.45494 | 24022 ft | 369 kts | 269° |
| 2026-05-05 15:32 | -32.86107 | -69.48542 | 24026 ft | 369 kts | 269° |
| 2026-05-05 15:32 | -32.86244 | -69.51579 | 24014 ft | 367 kts | 269° |
| 2026-05-05 15:32 | -32.86380 | -69.54606 | 24111 ft | 364 kts | 269° |
| 2026-05-05 15:32 | -32.86513 | -69.57564 | 24103 ft | 354 kts | 269° |
| 2026-05-05 15:33 | -32.86643 | -69.60480 | 24093 ft | 352 kts | 269° |
| 2026-05-05 15:33 | -32.86770 | -69.63383 | 24103 ft | 352 kts | 269° |
| 2026-05-05 15:33 | -32.86898 | -69.66291 | 24150 ft | 351 kts | 269° |
| 2026-05-05 15:33 | -32.87028 | -69.69192 | 24144 ft | 351 kts | 269° |
| 2026-05-05 15:34 | -32.87156 | -69.72094 | 24146 ft | 351 kts | 269° |
| 2026-05-05 15:34 | -32.87284 | -69.74993 | 24158 ft | 350 kts | 269° |
| 2026-05-05 15:34 | -32.87410 | -69.77889 | 24143 ft | 351 kts | 270° |
| 2026-05-05 15:34 | -32.87536 | -69.80787 | 24184 ft | 351 kts | 270° |
| 2026-05-05 15:35 | -32.87660 | -69.83688 | 24184 ft | 351 kts | 269° |
| 2026-05-05 15:35 | -32.87782 | -69.86592 | 24213 ft | 351 kts | 269° |
| 2026-05-05 15:35 | -32.87822 | -69.87538 | 24214 ft | 351 kts | 270° |
| 2026-05-05 15:35 | -32.87854 | -69.88304 | 24216 ft | 351 kts | 270° |
| 2026-05-05 15:36 | -32.88045 | -69.90817 | 24206 ft | 350 kts | 268° |
| 2026-05-05 15:36 | -32.88210 | -69.93696 | 24207 ft | 348 kts | 270° |
| 2026-05-05 15:36 | -32.88308 | -69.96560 | 24203 ft | 346 kts | 271° |
| 2026-05-05 15:36 | -32.88383 | -69.99416 | 24201 ft | 345 kts | 271° |
| 2026-05-05 15:37 | -32.88463 | -70.02271 | 24202 ft | 346 kts | 271° |
| 2026-05-05 15:37 | -32.88563 | -70.05132 | 24200 ft | 346 kts | 270° |
| 2026-05-05 15:37 | -32.88678 | -70.07990 | 24182 ft | 347 kts | 270° |
| 2026-05-05 15:37 | -32.88803 | -70.10855 | 24181 ft | 346 kts | 270° |
| 2026-05-05 15:38 | -32.88934 | -70.13715 | 24175 ft | 346 kts | 270° |
| 2026-05-05 15:38 | -32.89069 | -70.16566 | 24169 ft | 344 kts | 270° |
| 2026-05-05 15:38 | -32.89200 | -70.19413 | 24164 ft | 345 kts | 270° |
| 2026-05-05 15:38 | -32.89328 | -70.22279 | 24123 ft | 346 kts | 270° |
| 2026-05-05 15:39 | -32.89453 | -70.25129 | 24097 ft | 344 kts | 270° |
| 2026-05-05 15:39 | -32.89576 | -70.27986 | 24099 ft | 346 kts | 270° |
| 2026-05-05 15:39 | -32.89698 | -70.30849 | 24100 ft | 347 kts | 270° |
| 2026-05-05 15:39 | -32.89820 | -70.33714 | 24060 ft | 347 kts | 270° |
| 2026-05-05 15:40 | -32.89943 | -70.36582 | 24062 ft | 347 kts | 271° |
| 2026-05-05 15:40 | -32.90062 | -70.39412 | 24060 ft | 347 kts | 271° |
| 2026-05-05 15:40 | -32.90180 | -70.42274 | 23988 ft | 344 kts | 271° |
| 2026-05-05 15:40 | -32.90297 | -70.45082 | 23763 ft | 337 kts | 271° |
| 2026-05-05 15:41 | -32.90413 | -70.47848 | 23455 ft | 333 kts | 271° |
| 2026-05-05 15:41 | -32.90527 | -70.50602 | 23194 ft | 333 kts | 271° |
| 2026-05-05 15:41 | -32.90639 | -70.53349 | 22928 ft | 332 kts | 271° |
| 2026-05-05 15:41 | -32.90755 | -70.56089 | 22667 ft | 332 kts | 271° |
| 2026-05-05 15:42 | -32.90882 | -70.58833 | 22404 ft | 332 kts | 271° |
| 2026-05-05 15:42 | -32.91013 | -70.61574 | 22120 ft | 331 kts | 271° |
| 2026-05-05 15:42 | -32.91145 | -70.64304 | 21866 ft | 331 kts | 271° |
| 2026-05-05 15:42 | -32.91277 | -70.67042 | 21607 ft | 331 kts | 271° |
| 2026-05-05 15:43 | -32.91405 | -70.69757 | 21296 ft | 326 kts | 271° |
| 2026-05-05 15:43 | -32.91526 | -70.72423 | 20845 ft | 323 kts | 271° |
| 2026-05-05 15:43 | -32.91645 | -70.75099 | 20350 ft | 323 kts | 271° |
| 2026-05-05 15:43 | -32.92012 | -70.77758 | 19864 ft | 330 kts | 257° |
| 2026-05-05 15:44 | -32.93028 | -70.80207 | 19368 ft | 342 kts | 241° |
| 2026-05-05 15:44 | -32.94731 | -70.82297 | 18840 ft | 356 kts | 223° |
| 2026-05-05 15:44 | -32.96927 | -70.83703 | 18308 ft | 368 kts | 210° |
| 2026-05-05 15:44 | -32.99287 | -70.84909 | 17699 ft | 370 kts | 209° |
| 2026-05-05 15:45 | -33.01646 | -70.86109 | 17142 ft | 364 kts | 209° |
| 2026-05-05 15:45 | -33.03937 | -70.87271 | 16639 ft | 357 kts | 209° |
| 2026-05-05 15:45 | -33.06224 | -70.88443 | 16148 ft | 357 kts | 209° |
| 2026-05-05 15:45 | -33.08498 | -70.89612 | 15727 ft | 356 kts | 209° |
| 2026-05-05 15:46 | -33.10768 | -70.90783 | 15283 ft | 355 kts | 209° |
| 2026-05-05 15:46 | -33.13033 | -70.91951 | 14842 ft | 354 kts | 209° |
| 2026-05-05 15:46 | -33.15290 | -70.93116 | 14410 ft | 352 kts | 208° |
| 2026-05-05 15:46 | -33.17526 | -70.94269 | 13985 ft | 349 kts | 208° |
| 2026-05-05 15:47 | -33.19789 | -70.95321 | 13510 ft | 351 kts | 200° |
| 2026-05-05 15:47 | -33.21377 | -70.95726 | 13213 ft | 353 kts | 191° |
| 2026-05-05 15:47 | -33.24669 | -70.95708 | 12626 ft | 356 kts | 176° |
| 2026-05-05 15:47 | -33.27131 | -70.95381 | 12159 ft | 356 kts | 176° |
| 2026-05-05 15:48 | -33.29606 | -70.95057 | 11685 ft | 357 kts | 176° |
| 2026-05-05 15:48 | -33.32060 | -70.94736 | 11235 ft | 354 kts | 176° |
| 2026-05-05 15:48 | -33.34508 | -70.94414 | 10766 ft | 353 kts | 175° |
| 2026-05-05 15:48 | -33.36918 | -70.94095 | 10331 ft | 353 kts | 175° |
| 2026-05-05 15:49 | -33.39368 | -70.93785 | 9907 ft | 353 kts | 175° |
| 2026-05-05 15:49 | -33.41771 | -70.93497 | 9760 ft | 341 kts | 175° |
| 2026-05-05 15:49 | -33.44087 | -70.93222 | 9637 ft | 329 kts | 175° |
| 2026-05-05 15:49 | -33.46325 | -70.92953 | 9452 ft | 318 kts | 175° |
| 2026-05-05 15:50 | -33.48516 | -70.92693 | 9153 ft | 315 kts | 175° |
| 2026-05-05 15:50 | -33.50686 | -70.92441 | 8815 ft | 312 kts | 175° |
| 2026-05-05 15:50 | -33.52843 | -70.92193 | 8470 ft | 309 kts | 175° |
| 2026-05-05 15:50 | -33.54971 | -70.91950 | 8114 ft | 307 kts | 175° |
| 2026-05-05 15:51 | -33.57070 | -70.91723 | 7926 ft | 296 kts | 175° |
| 2026-05-05 15:51 | -33.59019 | -70.91332 | 7755 ft | 276 kts | 158° |
| 2026-05-05 15:51 | -33.60566 | -70.90108 | 7345 ft | 263 kts | 128° |
| 2026-05-05 15:51 | -33.61402 | -70.88240 | 6884 ft | 251 kts | 100° |
| 2026-05-05 15:52 | -33.61538 | -70.86258 | 6673 ft | 229 kts | 78° |
| 2026-05-05 15:52 | -33.61154 | -70.84476 | 6352 ft | 219 kts | 64° |
| 2026-05-05 15:52 | -33.60394 | -70.82929 | 5912 ft | 215 kts | 52° |
| 2026-05-05 15:52 | -33.59497 | -70.81495 | 5487 ft | 213 kts | 46° |
| 2026-05-05 15:53 | -33.58314 | -70.80474 | 5044 ft | 210 kts | 25° |
| 2026-05-05 15:53 | -33.56982 | -70.79758 | 4620 ft | 210 kts | 19° |
| 2026-05-05 15:53 | -33.55553 | -70.79479 | 4196 ft | 209 kts | 1° |
| 2026-05-05 15:53 | -33.54101 | -70.79533 | 3811 ft | 208 kts | 356° |
| 2026-05-05 15:54 | -33.52699 | -70.79612 | 3686 ft | 197 kts | 356° |
| 2026-05-05 15:54 | -33.51354 | -70.79685 | 3513 ft | 190 kts | 355° |
| 2026-05-05 15:54 | -33.50072 | -70.79756 | 3245 ft | 181 kts | 355° |
| 2026-05-05 15:54 | -33.48865 | -70.79814 | 2981 ft | 169 kts | 355° |
| 2026-05-05 15:55 | -33.47701 | -70.79853 | 2727 ft | 162 kts | 356° |
| 2026-05-05 15:55 | -33.46640 | -70.79883 | 2513 ft | 147 kts | 356° |
| 2026-05-05 15:55 | -33.45635 | -70.79914 | 2220 ft | 142 kts | 356° |
| 2026-05-05 15:55 | -33.44664 | -70.79944 | 2046 ft | 138 kts | 358° |
| 2026-05-05 15:56 | -33.43702 | -70.79951 | 1950 ft | 138 kts | 360° |
| 2026-05-05 15:56 | -33.43070 | -70.79954 | 1908 ft | 136 kts | 358° |
| 2026-05-05 15:56 | -33.42129 | -70.80034 | 1832 ft | 135 kts | 354° |
| 2026-05-05 15:56 | -33.41193 | -70.80145 | 1712 ft | 135 kts | 355° |
| 2026-05-05 15:57 | -33.40259 | -70.80205 | 1580 ft | 132 kts | 358° |
| 2026-05-05 15:57 | -33.39444 | -70.80257 | 1559 ft | 101 kts | 357° |
| 2026-05-05 15:57 | -33.38882 | -70.80285 | 1560 ft | 60 kts | 358° |
| 2026-05-05 15:57 | -33.38623 | -70.80298 | 1559 ft | 23 kts | 357° |
| 2026-05-05 15:58 | -33.38458 | -70.80307 | 1558 ft | 24 kts | 357° |
| 2026-05-05 15:58 | -33.38286 | -70.80317 | 1557 ft | 25 kts | 357° |
| 2026-05-05 15:58 | -33.38104 | -70.80324 | 1555 ft | 27 kts | 358° |
| 2026-05-05 15:58 | -33.37917 | -70.80332 | 1556 ft | 27 kts | 358° |
| 2026-05-05 15:59 | -33.37727 | -70.80342 | 1555 ft | 28 kts | 356° |
| 2026-05-05 15:59 | -33.37535 | -70.80355 | 1557 ft | 27 kts | 357° |
| 2026-05-05 15:59 | -33.37343 | -70.80366 | 1555 ft | 28 kts | 357° |
| 2026-05-05 15:59 | -33.37166 | -70.80371 | 1555 ft | 13 kts | 10° |
| 2026-05-05 16:00 | -33.37104 | -70.80293 | 1555 ft | 15 kts | 81° |
| 2026-05-05 16:00 | -33.37142 | -70.80186 | 1555 ft | 14 kts | 145° |
| 2026-05-05 16:00 | -33.37230 | -70.80166 | 1555 ft | 12 kts | 178° |
| 2026-05-05 16:00 | -33.37309 | -70.80162 | 1556 ft | 11 kts | 177° |
| 2026-05-05 16:01 | -33.37379 | -70.80158 | 1556 ft | 10 kts | 178° |
| 2026-05-05 16:01 | -33.37442 | -70.80155 | 1555 ft | 9 kts | 178° |
| 2026-05-05 16:01 | -33.37508 | -70.80152 | 1556 ft | 12 kts | 177° |
| 2026-05-05 16:01 | -33.37608 | -70.80146 | 1556 ft | 17 kts | 178° |
| 2026-05-05 16:02 | -33.37746 | -70.80139 | 1556 ft | 22 kts | 177° |
| 2026-05-05 16:02 | -33.37890 | -70.80131 | 1556 ft | 20 kts | 177° |
| 2026-05-05 16:02 | -33.38018 | -70.80125 | 1556 ft | 18 kts | 177° |
| 2026-05-05 16:02 | -33.38134 | -70.80119 | 1557 ft | 16 kts | 178° |
| 2026-05-05 16:03 | -33.38240 | -70.80113 | 1557 ft | 15 kts | 177° |
| 2026-05-05 16:03 | -33.38358 | -70.80107 | 1557 ft | 19 kts | 177° |
| 2026-05-05 16:03 | -33.38484 | -70.80100 | 1558 ft | 17 kts | 177° |
| 2026-05-05 16:03 | -33.38595 | -70.80094 | 1558 ft | 15 kts | 177° |
| 2026-05-05 16:04 | -33.38695 | -70.80088 | 1559 ft | 14 kts | 178° |
| 2026-05-05 16:04 | -33.38788 | -70.80083 | 1559 ft | 13 kts | 177° |
| 2026-05-05 16:04 | -33.38888 | -70.80078 | 1559 ft | 16 kts | 177° |
| 2026-05-05 16:04 | -33.39011 | -70.80071 | 1562 ft | 20 kts | 177° |
| 2026-05-05 16:05 | -33.39162 | -70.80063 | 1559 ft | 24 kts | 178° |
| 2026-05-05 16:05 | -33.39336 | -70.80054 | 1559 ft | 26 kts | 177° |
| 2026-05-05 16:05 | -33.39480 | -70.80047 | 1560 ft | 17 kts | 178° |
| 2026-05-05 16:05 | -33.39529 | -70.80044 | 1560 ft | 5 kts | 176° |
| 2026-05-05 16:06 | -33.39570 | -70.80041 | 1560 ft | 9 kts | 177° |
| 2026-05-05 16:06 | -33.39657 | -70.80036 | 1560 ft | 16 kts | 177° |
| 2026-05-05 16:06 | -33.39795 | -70.80029 | 1561 ft | 17 kts | 176° |
| 2026-05-05 16:06 | -33.39840 | -70.79930 | 1561 ft | 14 kts | 88° |
| 2026-05-05 16:07 | -33.39835 | -70.79820 | 1561 ft | 12 kts | 89° |
| 2026-05-05 16:07 | -33.39848 | -70.79750 | 1561 ft | 5 kts | 167° |
| 2026-05-05 16:07 | -33.39879 | -70.79743 | 1561 ft | 4 kts | 147° |
| 2026-05-05 16:07 | -33.39917 | -70.79725 | 1561 ft | 7 kts | 176° |
| 2026-05-05 16:08 | -33.39932 | -70.79724 | 1561 ft | 0 kts | 177° |